createdAt,value
2017-05-04T00:00:17.753Z,41.34
2017-05-04T00:02:46.816Z,36.58
2017-05-04T00:05:16.683Z,39.22
2017-05-04T00:07:45.784Z,42.62
2017-05-04T00:10:14.872Z,41.66
2017-05-04T00:12:43.938Z,39.00
2017-05-04T00:15:13.833Z,42.30
2017-05-04T00:17:43.621Z,44.18
2017-05-04T00:20:15.115Z,36.68
2017-05-04T00:22:44.926Z,45.56
2017-05-04T00:25:14.162Z,40.38
2017-05-04T00:27:44.401Z,37.98
2017-05-04T00:30:14.959Z,40.34
2017-05-04T00:32:44.792Z,37.70
2017-05-04T00:35:13.836Z,45.70
2017-05-04T00:37:42.896Z,45.16
2017-05-04T00:40:11.995Z,47.40
2017-05-04T00:42:41.062Z,44.52
2017-05-04T00:45:10.141Z,48.76
2017-05-04T00:47:39.969Z,53.12
2017-05-04T00:50:09.026Z,48.50
2017-05-04T00:52:38.084Z,47.56
2017-05-04T00:55:07.197Z,53.60
2017-05-04T00:57:36.257Z,61.54
2017-05-04T01:00:05.317Z,51.74
2017-05-04T01:02:34.378Z,49.68
2017-05-04T01:05:03.439Z,48.66
2017-05-04T01:07:32.497Z,53.32
2017-05-04T01:10:01.541Z,49.58
2017-05-04T01:12:30.580Z,47.08
2017-05-04T01:14:59.634Z,52.12
2017-05-04T01:17:28.684Z,51.68
2017-05-04T01:19:57.752Z,47.32
2017-05-04T01:22:26.824Z,52.04
2017-05-04T01:24:55.881Z,47.10
2017-05-04T01:27:25.669Z,47.96
2017-05-04T01:29:54.711Z,51.90
2017-05-04T01:32:23.764Z,53.16
2017-05-04T01:34:53.641Z,53.96
2017-05-04T01:37:22.704Z,51.80
2017-05-04T01:39:51.745Z,50.24
2017-05-04T01:42:20.824Z,50.54
2017-05-04T01:44:49.880Z,53.76
2017-05-04T01:47:19.684Z,52.76
2017-05-04T01:49:49.513Z,49.74
2017-05-04T01:52:18.561Z,52.24
2017-05-04T01:54:47.624Z,53.96
2017-05-04T01:57:16.675Z,55.74
2017-05-04T01:59:45.717Z,53.68
2017-05-04T02:02:14.754Z,51.46
2017-05-04T02:04:43.801Z,56.62
2017-05-04T02:07:12.893Z,56.60
2017-05-04T02:09:41.940Z,54.56
2017-05-04T02:12:10.985Z,58.04
2017-05-04T02:14:40.041Z,56.36
2017-05-04T02:17:09.826Z,52.98
2017-05-04T02:19:38.905Z,52.92
2017-05-04T02:22:07.965Z,54.34
2017-05-04T02:24:37.032Z,56.68
2017-05-04T02:27:06.093Z,47.70
2017-05-04T02:29:35.135Z,46.88
2017-05-04T02:32:04.964Z,47.04
2017-05-04T02:34:34.014Z,51.28
2017-05-04T02:37:03.108Z,49.48
2017-05-04T02:39:32.178Z,48.74
2017-05-04T02:42:01.254Z,46.72
2017-05-04T02:44:30.311Z,44.06
2017-05-04T02:46:59.363Z,44.82
2017-05-04T02:49:28.438Z,44.28
2017-05-04T02:51:57.518Z,40.46
2017-05-04T02:54:27.318Z,46.92
2017-05-04T02:56:57.130Z,41.80
2017-05-04T02:59:26.930Z,46.58
2017-05-04T03:01:55.975Z,44.26
2017-05-04T03:04:25.040Z,43.56
2017-05-04T03:06:54.852Z,41.40
2017-05-04T03:09:24.661Z,42.80
2017-05-04T03:11:54.448Z,37.92
2017-05-04T03:14:23.493Z,39.98
2017-05-04T03:16:52.542Z,42.12
2017-05-04T03:19:21.594Z,37.76
2017-05-04T03:21:50.657Z,39.80
2017-05-04T03:24:19.837Z,39.16
2017-05-04T03:26:48.883Z,43.18
2017-05-04T03:29:17.990Z,43.52
2017-05-04T03:31:47.145Z,40.86
2017-05-04T03:34:16.965Z,37.48
2017-05-04T03:36:46.037Z,35.80
2017-05-04T03:39:15.845Z,39.14
2017-05-04T03:41:44.901Z,44.22
2017-05-04T03:44:13.977Z,36.38
2017-05-04T03:46:43.033Z,42.62
2017-05-04T03:49:12.853Z,38.92
2017-05-04T03:51:42.897Z,41.00
2017-05-04T03:54:16.688Z,41.20
2017-05-04T03:56:47.301Z,36.72
2017-05-04T03:59:16.370Z,38.26
2017-05-04T04:01:45.427Z,34.98
2017-05-04T04:04:14.532Z,36.54
2017-05-04T04:06:43.591Z,32.02
2017-05-04T04:09:13.620Z,30.84
2017-05-04T04:11:42.680Z,33.18
2017-05-04T04:14:11.720Z,31.62
2017-05-04T04:16:40.782Z,24.56
2017-05-04T04:19:09.858Z,25.66
2017-05-04T04:21:38.916Z,25.70
2017-05-04T04:24:07.984Z,23.58
2017-05-04T04:26:37.044Z,21.16
2017-05-04T04:29:06.120Z,24.32
2017-05-04T04:31:35.176Z,28.50
2017-05-04T04:34:04.224Z,23.06
2017-05-04T04:36:33.261Z,26.52
2017-05-04T04:39:03.067Z,23.42
2017-05-04T04:41:32.883Z,26.44
2017-05-04T04:44:02.692Z,22.72
2017-05-04T04:46:32.531Z,24.26
2017-05-04T04:49:01.577Z,32.16
2017-05-04T04:51:30.621Z,20.96
2017-05-04T04:53:59.677Z,22.36
2017-05-04T04:56:28.721Z,22.30
2017-05-04T04:58:57.761Z,19.66
2017-05-04T05:01:26.801Z,19.80
2017-05-04T05:03:56.196Z,23.36
2017-05-04T05:06:25.289Z,21.40
2017-05-04T05:08:54.359Z,18.36
2017-05-04T05:11:24.153Z,19.84
2017-05-04T05:13:53.219Z,22.68
2017-05-04T05:16:23.108Z,21.88
2017-05-04T05:18:52.452Z,19.06
2017-05-04T05:21:21.513Z,19.72
2017-05-04T05:23:50.572Z,22.46
2017-05-04T05:26:20.371Z,25.86
2017-05-04T05:28:49.513Z,18.02
2017-05-04T05:31:18.839Z,20.66
2017-05-04T05:33:47.889Z,20.54
2017-05-04T05:36:17.689Z,19.90
2017-05-04T05:38:47.772Z,20.34
2017-05-04T05:41:16.834Z,17.42
2017-05-04T05:43:45.878Z,22.22
2017-05-04T05:46:14.921Z,19.12
2017-05-04T05:48:43.969Z,23.30
2017-05-04T05:51:13.012Z,22.98
2017-05-04T05:53:42.057Z,17.94
2017-05-04T05:56:11.133Z,18.12
2017-05-04T05:58:40.238Z,17.96
2017-05-04T06:01:09.297Z,20.66
2017-05-04T06:03:38.363Z,19.84
2017-05-04T06:06:08.160Z,18.06
2017-05-04T06:08:37.289Z,20.62
2017-05-04T06:11:06.601Z,18.38
2017-05-04T06:13:35.900Z,16.76
2017-05-04T06:16:04.962Z,20.86
2017-05-04T06:18:34.764Z,17.66
2017-05-04T06:21:03.913Z,16.18
2017-05-04T06:23:32.969Z,16.16
2017-05-04T06:26:02.032Z,18.78
2017-05-04T06:28:31.083Z,17.76
2017-05-04T06:31:00.129Z,15.28
2017-05-04T06:33:29.510Z,16.64
2017-05-04T06:35:58.556Z,20.48
2017-05-04T06:38:28.373Z,15.60
2017-05-04T06:40:58.170Z,14.66
2017-05-04T06:43:27.993Z,15.02
2017-05-04T06:45:57.821Z,14.32
2017-05-04T06:48:26.890Z,16.08
2017-05-04T06:50:55.959Z,20.58
2017-05-04T06:53:25.016Z,14.58
2017-05-04T06:55:54.065Z,17.30
2017-05-04T06:58:23.136Z,12.84
2017-05-04T07:00:52.211Z,20.54
2017-05-04T07:03:21.266Z,14.16
2017-05-04T07:05:51.108Z,17.92
2017-05-04T07:08:20.184Z,14.06
2017-05-04T07:10:49.979Z,13.32
2017-05-04T07:13:19.053Z,13.58
2017-05-04T07:15:48.114Z,13.70
2017-05-04T07:18:17.177Z,16.54
2017-05-04T07:20:46.976Z,15.44
2017-05-04T07:23:16.776Z,15.34
2017-05-04T07:25:45.816Z,14.48
2017-05-04T07:28:14.872Z,14.28
2017-05-04T07:30:43.946Z,13.90
2017-05-04T07:33:12.997Z,17.00
2017-05-04T07:35:42.511Z,14.78
2017-05-04T07:38:11.571Z,15.06
2017-05-04T07:40:41.360Z,13.20
2017-05-04T07:43:10.420Z,13.78
2017-05-04T07:45:39.481Z,18.62
2017-05-04T07:48:09.898Z,13.32
2017-05-04T07:50:39.237Z,14.84
2017-05-04T07:53:08.293Z,14.18
2017-05-04T07:55:37.653Z,13.80
2017-05-04T07:58:06.731Z,17.80
2017-05-04T08:00:35.796Z,14.90
2017-05-04T08:03:05.669Z,15.34
2017-05-04T08:05:34.747Z,19.36
2017-05-04T08:08:03.833Z,15.08
2017-05-04T08:10:32.924Z,13.98
2017-05-04T08:13:01.973Z,18.42
2017-05-04T08:15:31.255Z,12.74
2017-05-04T08:18:00.310Z,15.38
2017-05-04T08:20:29.354Z,19.06
2017-05-04T08:22:58.407Z,17.50
2017-05-04T08:25:27.477Z,15.52
2017-05-04T08:27:57.288Z,15.78
2017-05-04T08:30:27.120Z,18.08
2017-05-04T08:32:56.191Z,16.88
2017-05-04T08:35:26.005Z,19.16
2017-05-04T08:37:55.076Z,16.50
2017-05-04T08:40:24.228Z,16.06
2017-05-04T08:42:53.305Z,15.18
2017-05-04T08:45:23.114Z,15.70
2017-05-04T08:47:52.948Z,13.98
2017-05-04T08:50:22.001Z,16.28
2017-05-04T08:52:51.056Z,14.14
2017-05-04T08:55:20.120Z,20.42
2017-05-04T08:57:49.541Z,14.80
2017-05-04T09:00:18.888Z,16.54
2017-05-04T09:02:47.937Z,16.30
2017-05-04T09:05:17.006Z,17.30
2017-05-04T09:07:46.109Z,14.58
2017-05-04T09:10:15.164Z,14.04
2017-05-04T09:12:44.253Z,14.86
2017-05-04T09:15:13.330Z,18.10
2017-05-04T09:17:42.384Z,18.02
2017-05-04T09:20:12.182Z,14.50
2017-05-04T09:22:46.898Z,14.04
2017-05-04T09:25:16.071Z,16.78
2017-05-04T09:27:46.060Z,14.32
2017-05-04T09:30:15.117Z,14.52
2017-05-04T09:32:44.175Z,19.50
2017-05-04T09:35:13.221Z,15.52
2017-05-04T09:37:42.303Z,16.10
2017-05-04T09:40:11.363Z,16.14
2017-05-04T09:42:40.431Z,19.20
2017-05-04T09:45:09.483Z,16.02
2017-05-04T09:47:39.234Z,17.08
2017-05-04T09:50:08.293Z,16.58
2017-05-04T09:52:37.553Z,15.74
2017-05-04T09:55:06.623Z,18.02
2017-05-04T09:57:35.696Z,18.34
2017-05-04T10:00:04.742Z,15.90
2017-05-04T10:02:33.814Z,15.96
2017-05-04T10:05:02.876Z,19.02
2017-05-04T10:07:31.919Z,18.28
2017-05-04T10:10:00.960Z,16.52
2017-05-04T10:12:30.025Z,17.96
2017-05-04T10:14:59.108Z,15.30
2017-05-04T10:17:28.409Z,18.80
2017-05-04T10:19:57.470Z,17.42
2017-05-04T10:22:26.551Z,18.14
2017-05-04T10:24:55.842Z,17.80
2017-05-04T10:27:25.706Z,16.90
2017-05-04T10:29:54.769Z,17.54
2017-05-04T10:32:23.830Z,19.08
2017-05-04T10:34:52.868Z,18.30
2017-05-04T10:37:21.932Z,17.54
2017-05-04T10:39:51.753Z,18.72
2017-05-04T10:42:21.556Z,19.58
2017-05-04T10:44:51.451Z,18.36
2017-05-04T10:47:20.497Z,18.90
2017-05-04T10:49:49.560Z,18.04
2017-05-04T10:52:19.365Z,19.82
2017-05-04T10:54:48.435Z,19.00
2017-05-04T10:57:17.577Z,20.88
2017-05-04T10:59:47.385Z,18.56
2017-05-04T11:02:17.166Z,19.32
2017-05-04T11:04:46.226Z,18.90
2017-05-04T11:07:15.287Z,18.84
2017-05-04T11:09:45.674Z,18.26
2017-05-04T11:12:14.742Z,20.30
2017-05-04T11:14:43.795Z,18.28
2017-05-04T11:17:13.615Z,21.48
2017-05-04T11:19:43.670Z,20.04
2017-05-04T11:22:12.734Z,22.32
2017-05-04T11:24:42.532Z,21.66
2017-05-04T11:27:12.320Z,24.74
2017-05-04T11:29:41.384Z,19.60
2017-05-04T11:32:10.455Z,19.02
2017-05-04T11:34:39.534Z,21.46
2017-05-04T11:37:09.432Z,19.06
2017-05-04T11:39:38.496Z,20.30
2017-05-04T11:42:07.889Z,20.16
2017-05-04T11:44:36.963Z,20.50
2017-05-04T11:47:06.026Z,24.22
2017-05-04T11:49:35.073Z,19.48
2017-05-04T11:52:05.035Z,22.40
2017-05-04T11:54:34.122Z,21.48
2017-05-04T11:57:03.224Z,21.06
2017-05-04T11:59:32.333Z,18.66
2017-05-04T12:02:02.134Z,20.92
2017-05-04T12:04:31.185Z,22.84
2017-05-04T12:07:00.296Z,22.66
2017-05-04T12:09:29.377Z,19.16
2017-05-04T12:11:58.426Z,25.14
2017-05-04T12:14:28.217Z,18.16
2017-05-04T12:16:57.287Z,21.24
2017-05-04T12:19:26.351Z,22.70
2017-05-04T12:21:55.400Z,21.00
2017-05-04T12:24:24.754Z,23.66
2017-05-04T12:26:53.834Z,19.88
2017-05-04T12:29:24.365Z,20.62
2017-05-04T12:31:54.981Z,21.26
2017-05-04T12:34:24.793Z,26.10
2017-05-04T12:36:54.601Z,23.40
2017-05-04T12:39:24.461Z,24.16
2017-05-04T12:41:53.515Z,24.08
2017-05-04T12:44:23.333Z,22.00
2017-05-04T12:46:53.137Z,26.74
2017-05-04T12:49:22.194Z,22.92
2017-05-04T12:51:51.238Z,22.00
2017-05-04T12:54:21.096Z,24.72
2017-05-04T12:56:50.196Z,22.26
2017-05-04T12:59:19.293Z,22.46
2017-05-04T13:01:48.363Z,25.38
2017-05-04T13:04:17.408Z,23.34
2017-05-04T13:06:46.500Z,27.72
2017-05-04T13:09:15.554Z,20.92
2017-05-04T13:11:44.668Z,20.86
2017-05-04T13:14:13.785Z,20.96
2017-05-04T13:16:42.827Z,21.62
2017-05-04T13:19:11.904Z,19.90
2017-05-04T13:21:41.689Z,21.70
2017-05-04T13:24:10.766Z,20.24
2017-05-04T13:26:39.842Z,16.44
2017-05-04T13:29:08.939Z,18.92
2017-05-04T13:31:37.984Z,16.92
2017-05-04T13:34:07.793Z,23.38
2017-05-04T13:36:36.852Z,18.28
2017-05-04T13:39:05.910Z,18.34
2017-05-04T13:41:34.969Z,21.04
2017-05-04T13:44:04.518Z,19.70
2017-05-04T13:46:35.778Z,16.54
2017-05-04T13:49:05.580Z,19.64
2017-05-04T13:51:34.627Z,13.96
2017-05-04T13:54:03.674Z,15.32
2017-05-04T13:56:32.724Z,13.48
2017-05-04T13:59:01.803Z,14.70
2017-05-04T14:01:30.941Z,16.32
2017-05-04T14:04:00.757Z,15.06
2017-05-04T14:06:30.715Z,15.62
2017-05-04T14:08:59.805Z,13.84
2017-05-04T14:11:29.217Z,12.88
2017-05-04T14:13:58.511Z,12.74
2017-05-04T14:16:28.215Z,13.56
2017-05-04T14:18:57.284Z,15.38
2017-05-04T14:21:26.407Z,16.82
2017-05-04T14:23:56.053Z,14.00
2017-05-04T14:26:25.110Z,15.16
2017-05-04T14:28:55.400Z,14.72
2017-05-04T14:31:27.098Z,14.56
2017-05-04T14:33:56.177Z,13.44
2017-05-04T14:36:28.179Z,19.32
2017-05-04T14:39:00.340Z,18.44
2017-05-04T14:41:34.324Z,17.30
2017-05-04T14:44:04.248Z,22.22
2017-05-04T14:46:33.325Z,15.24
2017-05-04T14:49:02.384Z,16.86
2017-05-04T14:51:32.204Z,17.36
2017-05-04T14:54:02.014Z,15.94
2017-05-04T14:56:32.273Z,14.90
2017-05-04T14:59:01.437Z,12.32
2017-05-04T15:01:31.275Z,13.78
2017-05-04T15:04:00.315Z,14.06
2017-05-04T15:06:29.375Z,13.24
2017-05-04T15:08:58.449Z,14.96
2017-05-04T15:11:28.410Z,19.52
2017-05-04T15:13:57.525Z,18.10
2017-05-04T15:16:26.613Z,13.48
2017-05-04T15:18:55.669Z,14.30
2017-05-04T15:21:24.742Z,15.72
2017-05-04T15:23:54.554Z,13.94
2017-05-04T15:26:23.612Z,18.14
2017-05-04T15:28:53.487Z,13.90
2017-05-04T15:31:22.716Z,13.54
2017-05-04T15:33:52.111Z,15.38
2017-05-04T15:36:21.181Z,14.64
2017-05-04T15:38:50.226Z,14.82
2017-05-04T15:41:19.976Z,14.86
2017-05-04T15:43:49.017Z,13.68
2017-05-04T15:46:24.856Z,13.74
2017-05-04T15:48:55.077Z,16.42
2017-05-04T15:51:24.143Z,13.42
2017-05-04T15:53:53.186Z,14.28
2017-05-04T15:56:22.230Z,17.22
2017-05-04T15:58:51.983Z,12.28
2017-05-04T16:01:21.048Z,13.56
2017-05-04T16:03:50.112Z,12.28
2017-05-04T16:06:19.915Z,12.36
2017-05-04T16:08:48.976Z,16.62
2017-05-04T16:11:18.020Z,12.48
2017-05-04T16:13:47.809Z,14.20
2017-05-04T16:16:17.823Z,12.32
2017-05-04T16:18:48.665Z,11.14
2017-05-04T16:21:18.952Z,12.08
2017-05-04T16:23:48.039Z,12.60
2017-05-04T16:26:17.116Z,11.58
2017-05-04T16:28:50.749Z,11.70
2017-05-04T16:31:24.569Z,10.70
2017-05-04T16:33:56.349Z,10.04
2017-05-04T16:36:26.485Z,8.72
2017-05-04T16:38:56.284Z,10.30
2017-05-04T16:41:25.440Z,10.96
2017-05-04T16:43:56.873Z,10.54
2017-05-04T16:46:26.518Z,9.16
2017-05-04T16:48:57.565Z,8.32
2017-05-04T16:51:26.650Z,9.24
2017-05-04T16:53:55.704Z,8.84
2017-05-04T16:56:25.238Z,7.58
2017-05-04T16:58:54.914Z,10.22
2017-05-04T17:01:23.962Z,10.66
2017-05-04T17:03:57.962Z,14.22
2017-05-04T17:06:28.039Z,11.44
2017-05-04T17:08:57.115Z,9.66
2017-05-04T17:11:26.889Z,15.02
2017-05-04T17:13:55.974Z,14.68
2017-05-04T17:16:26.385Z,16.74
2017-05-04T17:18:57.568Z,14.94
2017-05-04T17:21:27.372Z,10.20
2017-05-04T17:24:01.585Z,14.50
2017-05-04T17:26:33.416Z,12.44
2017-05-04T17:29:03.699Z,11.02
2017-05-04T17:31:33.501Z,13.80
2017-05-04T17:34:03.412Z,14.50
2017-05-04T17:36:33.175Z,13.86
2017-05-04T17:39:03.170Z,13.66
2017-05-04T17:41:32.345Z,14.34
2017-05-04T17:44:02.659Z,13.44
2017-05-04T17:46:32.959Z,13.14
2017-05-04T17:49:03.009Z,11.42
2017-05-04T17:51:33.637Z,12.88
2017-05-04T17:54:03.268Z,13.54
2017-05-04T17:56:33.916Z,14.20
2017-05-04T17:59:03.298Z,12.90
2017-05-04T18:01:34.356Z,12.88
2017-05-04T18:04:08.084Z,13.10
2017-05-04T18:06:37.398Z,14.94
2017-05-04T18:09:06.872Z,15.80
2017-05-04T18:11:39.773Z,12.78
2017-05-04T18:14:08.889Z,12.30
2017-05-04T18:16:42.677Z,11.82
2017-05-04T18:19:12.032Z,12.08
2017-05-04T18:21:43.398Z,12.28
2017-05-04T18:24:17.324Z,11.90
2017-05-04T18:26:47.356Z,13.18
2017-05-04T18:29:19.826Z,19.90
2017-05-04T18:31:55.288Z,16.36
2017-05-04T18:34:27.792Z,11.16
2017-05-04T18:36:58.578Z,12.66
2017-05-04T18:39:30.492Z,36.34
2017-05-04T18:42:03.353Z,11.50
2017-05-04T18:44:33.843Z,12.76
2017-05-04T18:47:04.535Z,14.28
2017-05-04T18:49:34.507Z,13.88
2017-05-04T18:52:07.095Z,10.88
2017-05-04T18:54:39.042Z,11.06
2017-05-04T18:57:11.025Z,10.38
2017-05-04T18:59:41.716Z,12.32
2017-05-04T19:02:14.236Z,10.68
2017-05-04T19:04:46.433Z,9.46
2017-05-04T19:07:15.518Z,12.24
2017-05-04T19:09:45.386Z,11.70
2017-05-04T19:12:14.434Z,13.34
2017-05-04T19:14:43.548Z,10.12
2017-05-04T19:17:13.336Z,9.60
2017-05-04T19:19:42.457Z,10.82
2017-05-04T19:22:12.607Z,9.40
2017-05-04T19:24:45.286Z,10.76
2017-05-04T19:27:14.374Z,8.90
2017-05-04T19:29:43.481Z,8.12
2017-05-04T19:32:12.814Z,11.06
2017-05-04T19:34:41.883Z,9.16
2017-05-04T19:37:10.973Z,9.48
2017-05-04T19:39:40.925Z,9.18
2017-05-04T19:42:09.983Z,13.98
2017-05-04T19:44:39.050Z,8.52
2017-05-04T19:47:12.600Z,9.86
2017-05-04T19:49:41.649Z,8.32
2017-05-04T19:52:11.468Z,9.98
2017-05-04T19:54:40.573Z,7.84
2017-05-04T19:57:09.624Z,7.78
2017-05-04T19:59:38.703Z,6.26
2017-05-04T20:02:07.740Z,6.92
2017-05-04T20:04:37.544Z,8.88
2017-05-04T20:07:07.344Z,11.44
2017-05-04T20:09:36.400Z,9.82
2017-05-04T20:12:05.554Z,10.52
2017-05-04T20:14:36.152Z,13.32
2017-05-04T20:17:05.226Z,12.28
2017-05-04T20:19:34.520Z,10.98
2017-05-04T20:22:06.167Z,12.68
2017-05-04T20:24:35.264Z,13.72
2017-05-04T20:27:04.329Z,13.24
2017-05-04T20:29:34.169Z,11.44
2017-05-04T20:32:03.243Z,13.92
2017-05-04T20:34:38.000Z,14.42
2017-05-04T20:37:08.518Z,13.66
2017-05-04T20:39:37.600Z,15.76
2017-05-04T20:42:07.358Z,14.26
2017-05-04T20:44:38.396Z,14.92
2017-05-04T20:47:07.469Z,15.42
2017-05-04T20:49:36.537Z,15.58
2017-05-04T20:52:06.346Z,17.14
2017-05-04T20:54:36.146Z,17.34
2017-05-04T20:57:05.208Z,19.06
2017-05-04T20:59:34.290Z,17.56
2017-05-04T21:02:03.637Z,20.84
2017-05-04T21:04:33.462Z,21.28
2017-05-04T21:07:03.249Z,20.46
2017-05-04T21:09:32.303Z,22.42
2017-05-04T21:12:02.761Z,22.24
2017-05-04T21:14:31.827Z,24.28
2017-05-04T21:17:01.218Z,30.84
2017-05-04T21:19:30.521Z,26.40
2017-05-04T21:21:59.623Z,26.78
2017-05-04T21:24:29.408Z,27.18
2017-05-04T21:26:59.232Z,28.70
2017-05-04T21:29:28.272Z,31.74
2017-05-04T21:31:57.409Z,27.08
2017-05-04T21:34:26.499Z,27.38
2017-05-04T21:36:56.367Z,29.18
2017-05-04T21:39:25.422Z,27.10
2017-05-04T21:41:54.938Z,27.06
2017-05-04T21:44:25.268Z,29.44
2017-05-04T21:46:54.354Z,26.36
2017-05-04T21:49:26.489Z,24.68
2017-05-04T21:51:56.423Z,26.90
2017-05-04T21:54:26.221Z,26.10
2017-05-04T21:56:56.012Z,22.98
2017-05-04T21:59:25.060Z,18.92
2017-05-04T22:01:56.165Z,19.96
2017-05-04T22:04:28.599Z,21.62
2017-05-04T22:06:57.667Z,18.80
2017-05-04T22:09:29.011Z,18.04
2017-05-04T22:11:58.164Z,22.58
2017-05-04T22:14:30.218Z,19.74
2017-05-04T22:16:59.275Z,20.54
2017-05-04T22:19:28.325Z,19.92
2017-05-04T22:21:57.374Z,20.74
2017-05-04T22:24:26.411Z,21.70
2017-05-04T22:26:55.478Z,19.64
2017-05-04T22:29:24.573Z,19.28
2017-05-04T22:31:53.629Z,18.90
2017-05-04T22:34:23.408Z,21.08
2017-05-04T22:36:52.472Z,19.92
2017-05-04T22:39:21.543Z,19.86
2017-05-04T22:41:50.784Z,19.10
2017-05-04T22:44:19.904Z,20.86
2017-05-04T22:46:48.971Z,22.10
2017-05-04T22:49:18.009Z,23.08
2017-05-04T22:51:47.788Z,22.50
2017-05-04T22:54:16.817Z,21.94
2017-05-04T22:56:46.600Z,23.28
2017-05-04T22:59:15.776Z,22.14
2017-05-04T23:01:44.864Z,23.74
2017-05-04T23:04:13.913Z,24.92
2017-05-04T23:06:43.697Z,27.46
2017-05-04T23:09:12.748Z,23.68
2017-05-04T23:11:41.788Z,23.82
2017-05-04T23:14:10.825Z,23.18
2017-05-04T23:16:39.883Z,26.02
2017-05-04T23:19:08.939Z,27.38
2017-05-04T23:21:38.004Z,26.58
2017-05-04T23:24:07.072Z,28.04
2017-05-04T23:26:36.131Z,26.48
2017-05-04T23:29:05.196Z,25.00
2017-05-04T23:31:34.253Z,25.90
2017-05-04T23:34:03.301Z,28.34
2017-05-04T23:36:32.590Z,25.88
2017-05-04T23:39:02.372Z,24.38
2017-05-04T23:41:33.072Z,25.12
2017-05-04T23:44:02.114Z,31.20
2017-05-04T23:46:31.916Z,24.06
2017-05-04T23:49:01.696Z,26.36
2017-05-04T23:51:30.741Z,25.82
2017-05-04T23:54:00.433Z,24.02
2017-05-04T23:56:30.231Z,25.36
2017-05-04T23:59:00.028Z,27.54
